Nearby METAR Reports

 

KALB - Albany, New York, USA
Distance from station: E 47mi, 75km
Updated: Sat, 24-Jun-2017 10:51am EDT
Few Clouds
Few Clouds
 Wind from WNW
Wind: WNW 18 mph , 30 km/h, Gust: 24 mph , 39 km/h
Temperature: 75°F , 24°C
Dew Point: 63°F , 17°C
Humidity: 65%
Barometer: 29.65 inHg , 1004.1 hPa
Clouds: Few Clouds
Visibility: 10 miles , 16 km
Cloud details: Few Clouds 3000 ft
Few Clouds 12000 ft
Few Clouds 25000 ft
2017/06/24 14:51 KALB 241451Z 29016G21KT 10SM FEW030 FEW120 FEW250 24/17 A2965 RMK AO2 SLP038 60002 T02440172 53022
KSLK - Saranac Lake, New York, USA
Distance from station: N 110mi, 177km
Updated: Sat, 24-Jun-2017 10:51am EDT
Few Clouds
Few Clouds
 Wind from W
Wind: W 8 mph , 13 km/h, Gust: 18 mph , 30 km/h
Temperature: 68°F , 20°C
Dew Point: 57°F , 14°C
Humidity: 69%
Barometer: 29.65 inHg , 1004.1 hPa
Clouds: Few Clouds
Visibility: 10 miles , 16 km
Cloud details: Few Clouds 2800 ft
2017/06/24 14:51 KSLK 241451Z AUTO 26007G16KT 240V320 10SM FEW028 20/14 A2965 RMK AO2 SLP033 T02000139 53018
 
KSYR - Syracuse, New York, USA
Distance from station: W 73mi, 117km
Updated: Sat, 24-Jun-2017 10:54am EDT
Few Clouds
Few Clouds
 Wind from WNW
Wind: WNW 13 mph , 20 km/h
Temperature: 73°F , 23°C
Dew Point: 57°F , 14°C
Humidity: 57%
Barometer: 29.71 inHg , 1006.1 hPa
Clouds: Few Clouds
Visibility: 10 miles , 16 km
Cloud details: Few Clouds 1700 ft
Few Clouds 11000 ft
2017/06/24 14:54 KSYR 241454Z 29011KT 10SM FEW017 FEW110 23/14 A2971 RMK AO2 SLP056 T02280139 51022
KBGM - Binghamton, New York, USA
Distance from station: SW 78mi, 126km
Updated: Sat, 24-Jun-2017 10:53am EDT
Clear
Clear
 Wind from WNW
Wind: WNW 9 mph , 15 km/h, Gust: 18 mph , 30 km/h
Temperature: 70°F , 21°C
Dew Point: 52°F , 11°C
Humidity: 53%
Barometer: 29.77 inHg , 1008.1 hPa
Clouds: Clear
Visibility: 10 miles , 16 km
2017/06/24 14:53 KBGM 241453Z 30008G16KT 10SM SKC 21/11 A2977
 
KRME - Rome, New York, USA
Distance from station: WNW 43mi, 69km
Updated: Sat, 24-Jun-2017 10:53am EDT
Few Clouds
Few Clouds
 Wind from W
Wind: W 14 mph , 22 km/h
Temperature: 72°F , 22°C
Dew Point: 63°F , 17°C
Humidity: 73%
Barometer: 29.70 inHg , 1005.8 hPa
Clouds: Few Clouds
Visibility: 10 miles , 16 km
Cloud details: Few Clouds 2700 ft
2017/06/24 14:53 KRME 241453Z 26012KT 10SM FEW027 22/17 A2970 RMK AO2 SLP053 T02220167 53020
KJFK - New York, New York, USA
Distance from station: SSE 159mi, 256km
Updated: Sat, 24-Jun-2017 11:01am EDT
Mostly cloudy
Mostly cloudy
 Wind from WSW
Wind: WSW 9 mph , 15 km/h
Temperature: 81°F , 27°C
Heat Index: 86°F , 30°C
Dew Point: 73°F , 23°C
Humidity: 79%
Barometer: 29.66 inHg , 1004.4 hPa
Clouds: Mostly cloudy
Visibility: 10 miles , 16 km
Cloud details: Partly cloudy 2400 ft
Partly cloudy 2900 ft
Mostly cloudy 13000 ft
Mostly cloudy 25000 ft
2017/06/24 15:01 KJFK 241501Z 25008KT 10SM SCT024 SCT029 BKN130 BKN250 27/23 A2966 RMK AO2 T02720228
 
KROC - Rochester, New York, USA
Distance from station: W 150mi, 242km
Updated: Sat, 24-Jun-2017 10:54am EDT
Few Clouds
Few Clouds
 Wind from WNW
Wind: WNW 13 mph , 20 km/h, Gust: 21 mph , 33 km/h
Temperature: 75°F , 24°C
Dew Point: 54°F , 12°C
Humidity: 47%
Barometer: 29.75 inHg , 1007.5 hPa
Clouds: Few Clouds
Visibility: 10 miles , 16 km
Cloud details: Few Clouds 6000 ft
Few Clouds 25000 ft
2017/06/24 14:54 KROC 241454Z 29011G18KT 10SM FEW060 FEW250 24/12 A2975 RMK AO2 SLP072 T02390122 51015
KART - Watertown, New York, USA
Distance from station: NNW 103mi, 166km
Updated: Sat, 24-Jun-2017 10:56am EDT
Clear
Clear
 Wind from WSW
Wind: WSW 12 mph , 19 km/h
Temperature: 70°F , 21°C
Dew Point: 63°F , 17°C
Humidity: 78%
Barometer: 29.69 inHg , 1005.4 hPa
Clouds: Clear
Visibility: 10 miles , 16 km
2017/06/24 14:56 KART 241456Z AUTO 24010KT 10SM CLR 21/17 A2969 RMK AO2 SLP048 T02060167 53020 $
 
KELM - Elmira-Corning, New York, USA
Distance from station: SSW 121mi, 195km
Updated: Sat, 24-Jun-2017 9:53am EDT
NOT Current
Clear
Clear
 Wind from NNW
Wind: NNW 8 mph , 13 km/h
Temperature: 73°F , 23°C
Dew Point: 57°F , 14°C
Humidity: 57%
Barometer: 29.74 inHg , 1007.1 hPa
Clouds: Clear
Visibility: 10 miles , 16 km
2017/06/24 13:53 KELM 241353Z 33007KT 10SM CLR 23/14 A2974
KJHW - Jamestown, New York, USA
Distance from station: SW 238mi, 383km
Updated: Sat, 24-Jun-2017 11:15am EDT
Few Clouds
Few Clouds
 Wind from W
Wind: W 15 mph , 24 km/h, Gust: 21 mph , 33 km/h
Temperature: 72°F , 22°C
Dew Point: 54°F , 12°C
Humidity: 53%
Barometer: 29.84 inHg , 1010.5 hPa
Clouds: Few Clouds
Visibility: 10 miles , 16 km
Cloud details: Few Clouds 4400 ft
Few Clouds 6000 ft
2017/06/24 15:15 KJHW 241515Z AUTO 27013G18KT 10SM FEW044 FEW060 22/12 A2984 RMK AO1
 
KMSS - Massena, New York, USA
Distance from station: N 141mi, 232km
Updated: Sat, 24-Jun-2017 10:53am EDT
Partly cloudy
Partly cloudy
 Wind from W
Wind: W 12 mph , 19 km/h
Temperature: 73°F , 23°C
Dew Point: 63°F , 17°C
Humidity: 69%
Barometer: 29.62 inHg , 1003 hPa
Clouds: Partly cloudy
Visibility: 10 miles , 16 km
Cloud details: Few Clouds 2500 ft
Partly cloudy 7000 ft
2017/06/24 14:53 KMSS 241453Z AUTO 26010KT 10SM FEW025 SCT070 23/17 A2962 RMK AO2 SLP030 T02280167 53010
KBUF - Buffalo, New York, USA
Distance from station: W 204mi, 328km
Updated: Sat, 24-Jun-2017 10:54am EDT
Mostly cloudy
Mostly cloudy
 Wind from WSW
Wind: WSW 14 mph , 22 km/h, Gust: 22 mph , 35 km/h
Temperature: 72°F , 22°C
Dew Point: 63°F , 17°C
Humidity: 73%
Barometer: 29.77 inHg , 1008.1 hPa
Clouds: Mostly cloudy
Visibility: 10 miles , 16 km
Cloud details: Mostly cloudy 7000 ft
Mostly cloudy 9000 ft
Mostly cloudy 26000 ft
2017/06/24 14:54 KBUF 241454Z 25012G19KT 10SM BKN070 BKN090 BKN260 22/17 A2977 RMK AO2 SLP076 T02220167 53012